sensor_id;sensor_type;location;lat;lon;timestamp;pressure;altitude;pressure_sealevel;temperature;humidity
13241;BME280;6687;47.790;7.322;2023-01-29T06:11:46;100092.19;;;0.84;80.47
13241;BME280;6687;47.790;7.322;2023-01-29T06:14:13;100090.00;;;1.20;79.36
13241;BME280;6687;47.790;7.322;2023-01-29T06:16:39;100091.03;;;0.79;79.19
13241;BME280;6687;47.790;7.322;2023-01-29T06:19:06;100075.56;;;0.91;79.15
13241;BME280;6687;47.790;7.322;2023-01-29T06:21:33;100067.09;;;0.77;78.90
13241;BME280;6687;47.790;7.322;2023-01-29T06:24:00;100060.25;;;1.35;78.85
13241;BME280;6687;47.790;7.322;2023-01-29T06:26:27;100060.59;;;1.42;79.12
13241;BME280;6687;47.790;7.322;2023-01-29T06:28:55;100058.13;;;1.28;77.91
13241;BME280;6687;47.790;7.322;2023-01-29T06:31:21;100049.50;;;1.26;77.55
13241;BME280;6687;47.790;7.322;2023-01-29T06:33:48;100061.13;;;1.36;77.86
13241;BME280;6687;47.790;7.322;2023-01-29T06:36:15;100063.97;;;1.72;78.29
13241;BME280;6687;47.790;7.322;2023-01-29T06:38:42;100069.75;;;1.84;81.63
13241;BME280;6687;47.790;7.322;2023-01-29T06:41:09;100077.81;;;1.92;82.63
13241;BME280;6687;47.790;7.322;2023-01-29T06:43:36;100075.19;;;1.44;80.22
13241;BME280;6687;47.790;7.322;2023-01-29T06:46:07;100083.31;;;1.07;79.16
13241;BME280;6687;47.790;7.322;2023-01-29T06:48:34;100090.00;;;1.05;78.41
13241;BME280;6687;47.790;7.322;2023-01-29T06:51:02;100088.75;;;0.98;77.95
13241;BME280;6687;47.790;7.322;2023-01-29T06:53:29;100090.34;;;1.26;78.17
13241;BME280;6687;47.790;7.322;2023-01-29T06:55:56;100089.31;;;1.37;77.79
13241;BME280;6687;47.790;7.322;2023-01-29T06:58:23;100085.16;;;1.39;77.90
13241;BME280;6687;47.790;7.322;2023-01-29T07:00:50;100093.06;;;1.29;78.26
13241;BME280;6687;47.790;7.322;2023-01-29T07:03:19;100094.31;;;1.21;78.07
13241;BME280;6687;47.790;7.322;2023-01-29T07:05:50;100109.09;;;1.12;79.86
13241;BME280;6687;47.790;7.322;2023-01-29T07:08:17;100102.31;;;1.27;80.95
13241;BME280;6687;47.790;7.322;2023-01-29T07:10:47;100110.69;;;1.10;78.24
13241;BME280;6687;47.790;7.322;2023-01-29T07:13:13;100121.16;;;0.99;78.25
13241;BME280;6687;47.790;7.322;2023-01-29T07:15:40;100116.16;;;1.16;77.34
13241;BME280;6687;47.790;7.322;2023-01-29T07:18:09;100115.66;;;0.93;77.52
13241;BME280;6687;47.790;7.322;2023-01-29T07:20:39;100123.44;;;1.10;77.54
13241;BME280;6687;47.790;7.322;2023-01-29T07:23:08;100125.38;;;1.14;77.56
13241;BME280;6687;47.790;7.322;2023-01-29T07:25:36;100127.66;;;1.39;77.07
13241;BME280;6687;47.790;7.322;2023-01-29T07:28:03;100127.47;;;1.51;76.96
13241;BME280;6687;47.790;7.322;2023-01-29T07:30:30;100126.16;;;1.43;76.37
13241;BME280;6687;47.790;7.322;2023-01-29T07:33:00;100130.94;;;1.36;76.45
13241;BME280;6687;47.790;7.322;2023-01-29T07:35:27;100138.50;;;1.20;76.76
13241;BME280;6687;47.790;7.322;2023-01-29T07:37:55;100134.00;;;1.31;76.76
13241;BME280;6687;47.790;7.322;2023-01-29T07:40:22;100151.69;;;1.13;76.58
13241;BME280;6687;47.790;7.322;2023-01-29T07:42:49;100141.00;;;1.33;76.98
13241;BME280;6687;47.790;7.322;2023-01-29T07:45:15;100142.09;;;1.09;76.53
13241;BME280;6687;47.790;7.322;2023-01-29T07:47:42;100136.66;;;1.32;76.68
13241;BME280;6687;47.790;7.322;2023-01-29T07:50:10;100138.59;;;1.36;76.46
13241;BME280;6687;47.790;7.322;2023-01-29T07:52:36;100128.72;;;1.57;77.33
13241;BME280;6687;47.790;7.322;2023-01-29T07:55:05;100124.44;;;1.88;81.02
13241;BME280;6687;47.790;7.322;2023-01-29T07:57:32;100129.94;;;1.64;79.35
13241;BME280;6687;47.790;7.322;2023-01-29T07:59:59;100122.00;;;1.74;79.78
13241;BME280;6687;47.790;7.322;2023-01-29T08:02:26;100111.72;;;1.58;78.54
13241;BME280;6687;47.790;7.322;2023-01-29T08:04:52;100124.44;;;1.42;77.26
13241;BME280;6687;47.790;7.322;2023-01-29T08:07:19;100134.19;;;1.19;77.64
13241;BME280;6687;47.790;7.322;2023-01-29T08:09:46;100137.66;;;1.81;79.46
13241;BME280;6687;47.790;7.322;2023-01-29T08:12:14;100134.91;;;1.31;77.77
13241;BME280;6687;47.790;7.322;2023-01-29T08:14:41;100143.50;;;1.63;79.60
13241;BME280;6687;47.790;7.322;2023-01-29T08:17:07;100146.31;;;1.23;77.24
13241;BME280;6687;47.790;7.322;2023-01-29T08:19:34;100153.91;;;1.66;79.57
13241;BME280;6687;47.790;7.322;2023-01-29T08:22:02;100154.09;;;1.54;78.72
13241;BME280;6687;47.790;7.322;2023-01-29T08:24:29;100164.47;;;1.72;78.52
13241;BME280;6687;47.790;7.322;2023-01-29T08:26:56;100158.91;;;1.65;76.87
13241;BME280;6687;47.790;7.322;2023-01-29T08:29:24;100163.75;;;1.45;78.36
13241;BME280;6687;47.790;7.322;2023-01-29T08:31:51;100174.59;;;1.26;77.94
13241;BME280;6687;47.790;7.322;2023-01-29T08:34:17;100172.75;;;1.24;77.78
13241;BME280;6687;47.790;7.322;2023-01-29T08:36:44;100163.78;;;1.30;77.14
13241;BME280;6687;47.790;7.322;2023-01-29T08:39:11;100170.13;;;1.52;76.21
13241;BME280;6687;47.790;7.322;2023-01-29T08:41:38;100180.00;;;1.46;78.64
13241;BME280;6687;47.790;7.322;2023-01-29T08:44:05;100181.28;;;1.24;76.93
13241;BME280;6687;47.790;7.322;2023-01-29T08:46:33;100184.38;;;1.48;77.11
13241;BME280;6687;47.790;7.322;2023-01-29T08:49:00;100193.03;;;1.35;77.73
13241;BME280;6687;47.790;7.322;2023-01-29T08:51:27;100196.59;;;1.24;77.92
13241;BME280;6687;47.790;7.322;2023-01-29T08:53:53;100200.84;;;0.95;77.33
13241;BME280;6687;47.790;7.322;2023-01-29T08:56:20;100208.88;;;1.02;76.51
13241;BME280;6687;47.790;7.322;2023-01-29T08:58:47;100205.53;;;1.46;78.71
13241;BME280;6687;47.790;7.322;2023-01-29T09:01:14;100208.28;;;1.06;77.34
13241;BME280;6687;47.790;7.322;2023-01-29T09:03:42;100200.78;;;1.09;77.32
13241;BME280;6687;47.790;7.322;2023-01-29T09:06:10;100198.00;;;0.91;77.57
13241;BME280;6687;47.790;7.322;2023-01-29T09:08:37;100202.69;;;1.26;77.81
13241;BME280;6687;47.790;7.322;2023-01-29T09:11:04;100203.59;;;1.42;76.95
13241;BME280;6687;47.790;7.322;2023-01-29T09:13:31;100210.09;;;1.66;78.88
13241;BME280;6687;47.790;7.322;2023-01-29T09:15:59;100212.56;;;1.50;77.49
13241;BME280;6687;47.790;7.322;2023-01-29T09:18:26;100209.47;;;1.41;76.90
13241;BME280;6687;47.790;7.322;2023-01-29T09:20:54;100206.91;;;1.41;77.49
13241;BME280;6687;47.790;7.322;2023-01-29T09:23:21;100222.50;;;1.30;76.61
13241;BME280;6687;47.790;7.322;2023-01-29T09:25:48;100218.41;;;1.19;77.04
13241;BME280;6687;47.790;7.322;2023-01-29T09:28:15;100222.75;;;1.35;77.52
13241;BME280;6687;47.790;7.322;2023-01-29T09:30:43;100223.81;;;1.38;76.19
13241;BME280;6687;47.790;7.322;2023-01-29T09:33:10;100221.34;;;1.55;76.75
13241;BME280;6687;47.790;7.322;2023-01-29T09:35:39;100227.19;;;1.52;76.64
13241;BME280;6687;47.790;7.322;2023-01-29T09:38:07;100228.00;;;1.23;76.16
13241;BME280;6687;47.790;7.322;2023-01-29T09:40:44;100224.03;;;1.71;75.46
13241;BME280;6687;47.790;7.322;2023-01-29T09:43:17;100224.81;;;1.55;75.11
13241;BME280;6687;47.790;7.322;2023-01-29T09:45:52;100218.19;;;1.59;77.03
13241;BME280;6687;47.790;7.322;2023-01-29T09:48:22;100213.59;;;1.38;76.97
13241;BME280;6687;47.790;7.322;2023-01-29T09:50:53;100212.66;;;1.51;77.50
13241;BME280;6687;47.790;7.322;2023-01-29T09:53:28;100210.53;;;1.44;76.77
13241;BME280;6687;47.790;7.322;2023-01-29T09:56:00;100209.31;;;1.37;76.86
13241;BME280;6687;47.790;7.322;2023-01-29T09:58:31;100210.69;;;1.32;77.09
13241;BME280;6687;47.790;7.322;2023-01-29T10:01:07;100209.38;;;1.39;77.13
13241;BME280;6687;47.790;7.322;2023-01-29T10:06:53;100197.94;;;1.47;77.36
13241;BME280;6687;47.790;7.322;2023-01-29T10:09:46;100187.72;;;1.32;75.40
13241;BME280;6687;47.790;7.322;2023-01-29T10:12:26;100189.03;;;1.41;75.83
13241;BME280;6687;47.790;7.322;2023-01-29T10:15:00;100198.03;;;1.49;77.40
13241;BME280;6687;47.790;7.322;2023-01-29T10:17:55;100187.19;;;1.68;76.20
13241;BME280;6687;47.790;7.322;2023-01-29T10:20:52;100189.84;;;1.39;75.37
13241;BME280;6687;47.790;7.322;2023-01-29T10:23:23;100201.66;;;1.37;78.29
13241;BME280;6687;47.790;7.322;2023-01-29T10:25:54;100181.91;;;1.79;77.86
13241;BME280;6687;47.790;7.322;2023-01-29T10:28:25;100187.19;;;1.68;76.94
13241;BME280;6687;47.790;7.322;2023-01-29T10:30:58;100182.44;;;1.59;75.58
13241;BME280;6687;47.790;7.322;2023-01-29T10:33:29;100177.34;;;1.74;75.28
13241;BME280;6687;47.790;7.322;2023-01-29T10:36:01;100168.22;;;1.79;76.31
13241;BME280;6687;47.790;7.322;2023-01-29T10:38:40;100150.53;;;1.97;77.41
13241;BME280;6687;47.790;7.322;2023-01-29T10:41:27;100157.06;;;1.62;76.42
13241;BME280;6687;47.790;7.322;2023-01-29T10:44:06;100150.19;;;1.61;75.96
13241;BME280;6687;47.790;7.322;2023-01-29T10:46:50;100145.09;;;1.76;74.57
13241;BME280;6687;47.790;7.322;2023-01-29T10:49:32;100132.22;;;1.74;72.94
13241;BME280;6687;47.790;7.322;2023-01-29T10:52:14;100119.38;;;2.04;73.59
13241;BME280;6687;47.790;7.322;2023-01-29T10:54:56;100119.25;;;2.17;77.53
13241;BME280;6687;47.790;7.322;2023-01-29T10:57:41;100114.16;;;2.03;73.73
13241;BME280;6687;47.790;7.322;2023-01-29T11:00:17;100114.34;;;2.53;76.97
13241;BME280;6687;47.790;7.322;2023-01-29T11:02:47;100111.28;;;2.28;74.08
13241;BME280;6687;47.790;7.322;2023-01-29T11:05:19;100100.34;;;2.63;75.16
13241;BME280;6687;47.790;7.322;2023-01-29T11:08:02;100099.31;;;2.59;74.73
13241;BME280;6687;47.790;7.322;2023-01-29T11:10:31;100105.38;;;2.45;71.75
13241;BME280;6687;47.790;7.322;2023-01-29T11:13:02;100104.75;;;2.66;71.71
13241;BME280;6687;47.790;7.322;2023-01-29T11:15:32;100106.03;;;3.08;76.91
13241;BME280;6687;47.790;7.322;2023-01-29T11:18:04;100102.97;;;2.81;72.07
13241;BME280;6687;47.790;7.322;2023-01-29T11:20:32;100097.78;;;3.14;71.14
13241;BME280;6687;47.790;7.322;2023-01-29T11:22:59;100105.75;;;3.36;74.32
13241;BME280;6687;47.790;7.322;2023-01-29T11:25:26;100103.56;;;3.10;67.17
13241;BME280;6687;47.790;7.322;2023-01-29T11:27:55;100103.06;;;3.17;68.14
13241;BME280;6687;47.790;7.322;2023-01-29T11:30:25;100091.63;;;3.81;76.38
13241;BME280;6687;47.790;7.322;2023-01-29T11:32:59;100092.03;;;3.36;67.41
13241;BME280;6687;47.790;7.322;2023-01-29T11:35:31;100100.09;;;3.79;66.14
13241;BME280;6687;47.790;7.322;2023-01-29T11:38:06;100092.72;;;3.68;64.84
13241;BME280;6687;47.790;7.322;2023-01-29T11:40:38;100103.59;;;3.99;64.57
13241;BME280;6687;47.790;7.322;2023-01-29T11:43:27;100102.63;;;4.15;65.51
13241;BME280;6687;47.790;7.322;2023-01-29T11:45:57;100094.50;;;4.24;64.45
13241;BME280;6687;47.790;7.322;2023-01-29T11:48:33;100096.44;;;4.49;65.79
13241;BME280;6687;47.790;7.322;2023-01-29T11:51:06;100087.13;;;4.71;66.16
13241;BME280;6687;47.790;7.322;2023-01-29T11:53:36;100080.25;;;4.70;67.03
13241;BME280;6687;47.790;7.322;2023-01-29T11:56:14;100076.84;;;4.90;70.37
13241;BME280;6687;47.790;7.322;2023-01-29T11:58:42;100077.28;;;4.80;67.26
13241;BME280;6687;47.790;7.322;2023-01-29T12:01:15;100072.41;;;5.07;73.44
13241;BME280;6687;47.790;7.322;2023-01-29T12:03:48;100073.00;;;5.21;74.38
13241;BME280;6687;47.790;7.322;2023-01-29T12:06:19;100070.06;;;5.12;68.97
13241;BME280;6687;47.790;7.322;2023-01-29T12:08:53;100071.81;;;5.34;74.75
13241;BME280;6687;47.790;7.322;2023-01-29T12:11:27;100071.19;;;5.40;75.14
13241;BME280;6687;47.790;7.322;2023-01-29T12:13:56;100066.03;;;5.18;68.94
13241;BME280;6687;47.790;7.322;2023-01-29T12:16:28;100059.53;;;5.06;62.42
13241;BME280;6687;47.790;7.322;2023-01-29T12:19:04;100059.78;;;5.12;60.91
13241;BME280;6687;47.790;7.322;2023-01-29T12:21:42;100052.44;;;5.63;71.74
13241;BME280;6687;47.790;7.322;2023-01-29T12:24:22;100057.81;;;5.69;74.77
13241;BME280;6687;47.790;7.322;2023-01-29T12:26:54;100053.78;;;5.76;75.13
13241;BME280;6687;47.790;7.322;2023-01-29T12:29:30;100055.81;;;5.85;75.84
13241;BME280;6687;47.790;7.322;2023-01-29T12:32:06;100054.31;;;5.90;76.53
13241;BME280;6687;47.790;7.322;2023-01-29T12:34:45;100055.63;;;6.01;76.93
13241;BME280;6687;47.790;7.322;2023-01-29T12:37:20;100048.00;;;6.04;77.22
13241;BME280;6687;47.790;7.322;2023-01-29T12:39:48;100044.00;;;6.11;76.24
13241;BME280;6687;47.790;7.322;2023-01-29T12:42:18;100037.06;;;6.10;72.52
13241;BME280;6687;47.790;7.322;2023-01-29T12:44:50;100034.78;;;6.17;75.05
13241;BME280;6687;47.790;7.322;2023-01-29T12:47:22;100043.09;;;6.10;74.32
13241;BME280;6687;47.790;7.322;2023-01-29T12:49:55;100043.66;;;6.26;77.67
13241;BME280;6687;47.790;7.322;2023-01-29T12:52:33;100053.47;;;6.36;77.92
13241;BME280;6687;47.790;7.322;2023-01-29T12:55:06;100041.16;;;6.51;77.24
13241;BME280;6687;47.790;7.322;2023-01-29T12:57:41;100033.22;;;5.98;63.98
13241;BME280;6687;47.790;7.322;2023-01-29T13:00:14;100036.56;;;6.43;71.16
13241;BME280;6687;47.790;7.322;2023-01-29T13:02:49;100037.81;;;6.54;75.44
13241;BME280;6687;47.790;7.322;2023-01-29T13:05:23;100037.53;;;6.46;75.82
13241;BME280;6687;47.790;7.322;2023-01-29T13:07:57;100029.44;;;6.60;75.52
13241;BME280;6687;47.790;7.322;2023-01-29T13:10:28;100026.13;;;6.64;76.46
13241;BME280;6687;47.790;7.322;2023-01-29T13:12:59;100021.75;;;6.61;76.58
13241;BME280;6687;47.790;7.322;2023-01-29T13:15:32;100021.09;;;6.67;76.94
13241;BME280;6687;47.790;7.322;2023-01-29T13:18:22;100017.53;;;6.63;71.65
13241;BME280;6687;47.790;7.322;2023-01-29T13:20:56;100006.59;;;6.70;76.60
13241;BME280;6687;47.790;7.322;2023-01-29T13:23:29;100004.75;;;6.90;77.41
13241;BME280;6687;47.790;7.322;2023-01-29T13:25:57;99991.94;;;6.93;76.95
13241;BME280;6687;47.790;7.322;2023-01-29T13:28:25;99988.91;;;6.80;71.55
13241;BME280;6687;47.790;7.322;2023-01-29T13:31:10;99992.78;;;6.92;75.13
13241;BME280;6687;47.790;7.322;2023-01-29T13:33:41;99995.34;;;6.67;71.67
13241;BME280;6687;47.790;7.322;2023-01-29T13:36:14;99991.25;;;6.24;62.45
13241;BME280;6687;47.790;7.322;2023-01-29T13:38:43;99991.25;;;6.48;64.81
13241;BME280;6687;47.790;7.322;2023-01-29T13:41:10;99986.50;;;6.59;67.94
13241;BME280;6687;47.790;7.322;2023-01-29T13:43:39;99985.91;;;6.67;72.91
13241;BME280;6687;47.790;7.322;2023-01-29T13:46:09;99981.38;;;6.60;73.39
13241;BME280;6687;47.790;7.322;2023-01-29T13:48:42;99982.41;;;6.65;76.37
13241;BME280;6687;47.790;7.322;2023-01-29T13:51:13;99977.84;;;6.56;73.92
13241;BME280;6687;47.790;7.322;2023-01-29T13:53:51;99979.22;;;6.72;80.14
13241;BME280;6687;47.790;7.322;2023-01-29T13:56:40;99961.03;;;6.68;77.97
13241;BME280;6687;47.790;7.322;2023-01-29T13:59:20;99960.50;;;6.78;79.64
13241;BME280;6687;47.790;7.322;2023-01-29T14:02:01;99956.28;;;6.80;81.11
13241;BME280;6687;47.790;7.322;2023-01-29T14:04:31;99957.91;;;6.76;78.53
13241;BME280;6687;47.790;7.322;2023-01-29T14:06:59;99949.59;;;6.85;79.47
13241;BME280;6687;47.790;7.322;2023-01-29T14:09:58;99956.91;;;6.47;70.23
13241;BME280;6687;47.790;7.322;2023-01-29T14:12:40;99959.69;;;6.79;74.85
13241;BME280;6687;47.790;7.322;2023-01-29T14:15:19;99953.41;;;6.45;63.43
13241;BME280;6687;47.790;7.322;2023-01-29T14:18:17;99950.59;;;6.89;74.60
13241;BME280;6687;47.790;7.322;2023-01-29T14:20:55;99953.13;;;7.14;79.47
13241;BME280;6687;47.790;7.322;2023-01-29T14:23:28;99948.06;;;7.17;80.03
13241;BME280;6687;47.790;7.322;2023-01-29T14:25:58;99954.38;;;7.27;80.36
13241;BME280;6687;47.790;7.322;2023-01-29T14:28:28;99958.59;;;7.25;78.28
13241;BME280;6687;47.790;7.322;2023-01-29T14:30:56;99957.63;;;7.22;78.01
13241;BME280;6687;47.790;7.322;2023-01-29T14:33:26;99958.72;;;7.30;78.39
13241;BME280;6687;47.790;7.322;2023-01-29T14:35:56;99953.84;;;6.57;65.42
13241;BME280;6687;47.790;7.322;2023-01-29T14:38:26;99950.38;;;7.10;73.19
13241;BME280;6687;47.790;7.322;2023-01-29T14:41:13;99954.28;;;7.24;75.93
13241;BME280;6687;47.790;7.322;2023-01-29T14:43:42;99959.44;;;6.97;71.32
13241;BME280;6687;47.790;7.322;2023-01-29T14:46:41;99957.19;;;7.35;77.18
13241;BME280;6687;47.790;7.322;2023-01-29T14:49:09;99956.72;;;6.92;68.58
13241;BME280;6687;47.790;7.322;2023-01-29T14:51:40;99959.22;;;7.18;77.32
13241;BME280;6687;47.790;7.322;2023-01-29T14:54:21;99961.19;;;7.25;77.20
13241;BME280;6687;47.790;7.322;2023-01-29T14:56:56;99961.28;;;7.28;77.98
13241;BME280;6687;47.790;7.322;2023-01-29T14:59:29;99955.94;;;7.22;77.13
13241;BME280;6687;47.790;7.322;2023-01-29T15:02:00;99957.19;;;7.35;78.07
13241;BME280;6687;47.790;7.322;2023-01-29T15:04:40;99958.91;;;7.36;77.50
13241;BME280;6687;47.790;7.322;2023-01-29T15:07:19;99963.88;;;7.30;77.46
13241;BME280;6687;47.790;7.322;2023-01-29T15:09:52;99966.28;;;7.24;77.48
13241;BME280;6687;47.790;7.322;2023-01-29T15:12:24;99970.50;;;7.22;78.16
13241;BME280;6687;47.790;7.322;2023-01-29T15:15:02;99974.19;;;7.30;78.42
13241;BME280;6687;47.790;7.322;2023-01-29T15:17:35;99974.69;;;7.18;77.66
13241;BME280;6687;47.790;7.322;2023-01-29T15:20:30;99978.31;;;7.23;77.67
13241;BME280;6687;47.790;7.322;2023-01-29T15:22:59;99974.69;;;7.18;78.31
13241;BME280;6687;47.790;7.322;2023-01-29T15:25:32;99977.38;;;7.21;78.40
13241;BME280;6687;47.790;7.322;2023-01-29T15:28:01;99974.00;;;7.22;78.95
13241;BME280;6687;47.790;7.322;2023-01-29T15:30:34;99970.31;;;7.15;79.09
13241;BME280;6687;47.790;7.322;2023-01-29T15:33:02;99974.50;;;7.12;78.71
13241;BME280;6687;47.790;7.322;2023-01-29T15:35:33;99971.97;;;7.13;79.17
13241;BME280;6687;47.790;7.322;2023-01-29T15:38:04;99981.31;;;7.10;78.74
13241;BME280;6687;47.790;7.322;2023-01-29T15:40:32;99985.75;;;6.88;75.70
13241;BME280;6687;47.790;7.322;2023-01-29T15:42:59;99986.91;;;6.96;79.22
13241;BME280;6687;47.790;7.322;2023-01-29T15:45:29;99993.84;;;6.99;79.06
13241;BME280;6687;47.790;7.322;2023-01-29T15:48:00;99990.81;;;6.85;79.08
13241;BME280;6687;47.790;7.322;2023-01-29T15:50:29;99994.31;;;6.87;79.62
13241;BME280;6687;47.790;7.322;2023-01-29T15:52:59;100002.44;;;6.74;79.10
13241;BME280;6687;47.790;7.322;2023-01-29T15:55:30;99995.66;;;6.76;80.35
13241;BME280;6687;47.790;7.322;2023-01-29T15:57:58;99990.81;;;6.60;78.82
13241;BME280;6687;47.790;7.322;2023-01-29T16:00:27;99994.44;;;6.66;80.94
13241;BME280;6687;47.790;7.322;2023-01-29T16:02:54;99998.66;;;6.63;81.17
13241;BME280;6687;47.790;7.322;2023-01-29T16:05:25;99992.38;;;6.56;81.29
13241;BME280;6687;47.790;7.322;2023-01-29T16:07:54;99982.88;;;6.53;81.57
13241;BME280;6687;47.790;7.322;2023-01-29T16:10:23;99990.38;;;6.47;81.77
13241;BME280;6687;47.790;7.322;2023-01-29T16:12:52;99986.81;;;6.44;82.01
13241;BME280;6687;47.790;7.322;2023-01-29T16:15:27;99978.75;;;6.33;81.57
13241;BME280;6687;47.790;7.322;2023-01-29T16:17:56;99981.91;;;6.26;82.02
13241;BME280;6687;47.790;7.322;2023-01-29T16:20:39;99985.34;;;6.02;80.81
13241;BME280;6687;47.790;7.322;2023-01-29T16:23:15;99990.38;;;5.99;81.16
13241;BME280;6687;47.790;7.322;2023-01-29T16:25:42;99990.25;;;5.96;81.15
13241;BME280;6687;47.790;7.322;2023-01-29T16:28:11;99997.72;;;5.90;81.42
13241;BME280;6687;47.790;7.322;2023-01-29T16:30:38;100004.38;;;5.85;83.13
13241;BME280;6687;47.790;7.322;2023-01-29T16:33:09;100011.84;;;5.78;82.38
13241;BME280;6687;47.790;7.322;2023-01-29T16:35:37;100007.34;;;5.50;80.49
13241;BME280;6687;47.790;7.322;2023-01-29T16:38:17;100012.13;;;5.41;79.20
13241;BME280;6687;47.790;7.322;2023-01-29T16:41:05;100007.50;;;5.32;78.58
13241;BME280;6687;47.790;7.322;2023-01-29T16:43:51;100004.13;;;5.33;79.39
13241;BME280;6687;47.790;7.322;2023-01-29T16:46:22;100004.63;;;5.25;79.48
13241;BME280;6687;47.790;7.322;2023-01-29T16:48:49;100009.41;;;5.15;79.64
13241;BME280;6687;47.790;7.322;2023-01-29T16:51:22;100001.50;;;5.11;80.40
13241;BME280;6687;47.790;7.322;2023-01-29T16:53:58;99991.84;;;5.05;81.89
13241;BME280;6687;47.790;7.322;2023-01-29T16:56:27;99984.72;;;4.98;82.09
13241;BME280;6687;47.790;7.322;2023-01-29T16:58:57;99988.59;;;4.88;81.75
13241;BME280;6687;47.790;7.322;2023-01-29T17:01:25;99990.84;;;4.81;82.13
13241;BME280;6687;47.790;7.322;2023-01-29T17:03:58;99997.28;;;4.71;81.85
13241;BME280;6687;47.790;7.322;2023-01-29T17:06:26;100003.63;;;4.58;81.43
13241;BME280;6687;47.790;7.322;2023-01-29T17:08:53;100000.38;;;4.43;81.08
13241;BME280;6687;47.790;7.322;2023-01-29T17:11:28;100004.97;;;4.50;82.89
13241;BME280;6687;47.790;7.322;2023-01-29T17:13:57;100000.44;;;4.44;83.35
13241;BME280;6687;47.790;7.322;2023-01-29T17:16:27;100020.50;;;4.33;82.84
13241;BME280;6687;47.790;7.322;2023-01-29T17:18:54;100020.03;;;4.23;82.49
13241;BME280;6687;47.790;7.322;2023-01-29T17:21:21;100022.44;;;4.19;82.91
13241;BME280;6687;47.790;7.322;2023-01-29T17:23:48;100013.63;;;4.13;83.05
13241;BME280;6687;47.790;7.322;2023-01-29T17:26:15;100016.84;;;4.09;83.67
13241;BME280;6687;47.790;7.322;2023-01-29T17:28:42;100015.72;;;4.02;83.39
13241;BME280;6687;47.790;7.322;2023-01-29T17:31:11;100008.50;;;3.75;81.92
13241;BME280;6687;47.790;7.322;2023-01-29T17:33:40;100014.75;;;3.63;81.13
13241;BME280;6687;47.790;7.322;2023-01-29T17:36:10;100013.63;;;3.75;82.43
13241;BME280;6687;47.790;7.322;2023-01-29T17:38:37;100008.38;;;3.72;82.97
13241;BME280;6687;47.790;7.322;2023-01-29T17:41:07;100009.13;;;3.52;82.05
13241;BME280;6687;47.790;7.322;2023-01-29T17:43:36;100006.44;;;3.49;81.72
13241;BME280;6687;47.790;7.322;2023-01-29T17:46:03;100012.88;;;3.41;81.15
13241;BME280;6687;47.790;7.322;2023-01-29T17:48:31;100009.00;;;3.49;81.85
13241;BME280;6687;47.790;7.322;2023-01-29T17:51:01;100008.16;;;3.50;82.42
13241;BME280;6687;47.790;7.322;2023-01-29T17:53:28;100005.97;;;3.39;81.84
13241;BME280;6687;47.790;7.322;2023-01-29T17:55:55;100002.47;;;3.37;81.97
13241;BME280;6687;47.790;7.322;2023-01-29T17:58:24;100003.78;;;3.29;81.29
13241;BME280;6687;47.790;7.322;2023-01-29T18:00:51;100000.44;;;3.30;81.01
13241;BME280;6687;47.790;7.322;2023-01-29T18:03:18;99994.13;;;3.24;80.29
13241;BME280;6687;47.790;7.322;2023-01-29T18:05:48;99995.59;;;3.18;79.52
13241;BME280;6687;47.790;7.322;2023-01-29T18:08:16;100000.69;;;2.83;76.09
13241;BME280;6687;47.790;7.322;2023-01-29T18:10:45;100004.78;;;2.79;73.06
13241;BME280;6687;47.790;7.322;2023-01-29T18:13:12;99999.66;;;2.79;71.31
13241;BME280;6687;47.790;7.322;2023-01-29T18:15:39;99998.34;;;2.87;70.94
13241;BME280;6687;47.790;7.322;2023-01-29T18:18:09;100004.91;;;2.82;70.14
13241;BME280;6687;47.790;7.322;2023-01-29T18:20:37;100010.31;;;2.54;69.59
13241;BME280;6687;47.790;7.322;2023-01-29T18:23:06;100006.84;;;2.35;69.96
13241;BME280;6687;47.790;7.322;2023-01-29T18:25:33;100014.41;;;2.50;69.62
13241;BME280;6687;47.790;7.322;2023-01-29T18:28:00;100005.91;;;2.68;69.31
13241;BME280;6687;47.790;7.322;2023-01-29T18:30:27;100004.91;;;2.82;70.84
13241;BME280;6687;47.790;7.322;2023-01-29T18:32:54;100012.19;;;2.74;71.36
13241;BME280;6687;47.790;7.322;2023-01-29T18:35:22;100020.69;;;2.73;70.80
13241;BME280;6687;47.790;7.322;2023-01-29T18:37:49;100015.16;;;2.82;71.28
13241;BME280;6687;47.790;7.322;2023-01-29T18:40:18;100021.56;;;2.74;70.13
13241;BME280;6687;47.790;7.322;2023-01-29T18:42:45;100013.31;;;2.79;70.04
13241;BME280;6687;47.790;7.322;2023-01-29T18:45:13;100015.31;;;2.85;70.43
13241;BME280;6687;47.790;7.322;2023-01-29T18:47:40;100015.31;;;2.85;71.81
13241;BME280;6687;47.790;7.322;2023-01-29T18:50:09;100021.94;;;2.47;70.41
13241;BME280;6687;47.790;7.322;2023-01-29T18:52:36;100016.31;;;2.71;70.75
13241;BME280;6687;47.790;7.322;2023-01-29T18:55:04;100008.84;;;2.75;70.35
13241;BME280;6687;47.790;7.322;2023-01-29T18:57:32;100005.78;;;2.65;71.40
13241;BME280;6687;47.790;7.322;2023-01-29T18:59:59;100008.13;;;2.27;70.23
13241;BME280;6687;47.790;7.322;2023-01-29T19:02:25;100003.84;;;2.61;69.53
13241;BME280;6687;47.790;7.322;2023-01-29T19:04:52;100012.81;;;2.69;69.63
13241;BME280;6687;47.790;7.322;2023-01-29T19:07:19;100009.91;;;2.79;71.08
13241;BME280;6687;47.790;7.322;2023-01-29T19:09:46;100004.03;;;2.82;73.01
13241;BME280;6687;47.790;7.322;2023-01-29T19:12:15;99998.06;;;2.81;74.97
13241;BME280;6687;47.790;7.322;2023-01-29T19:14:43;100005.06;;;2.85;75.86
13241;BME280;6687;47.790;7.322;2023-01-29T19:17:10;100005.66;;;2.79;76.09
13241;BME280;6687;47.790;7.322;2023-01-29T19:19:37;100005.06;;;2.85;78.04
13241;BME280;6687;47.790;7.322;2023-01-29T19:22:04;100010.84;;;2.81;79.29
13241;BME280;6687;47.790;7.322;2023-01-29T19:24:30;100012.59;;;2.82;79.50
13241;BME280;6687;47.790;7.322;2023-01-29T19:27:03;100013.84;;;2.90;81.80
13241;BME280;6687;47.790;7.322;2023-01-29T19:29:31;100005.50;;;2.94;80.81
13241;BME280;6687;47.790;7.322;2023-01-29T19:31:59;100014.75;;;2.91;80.75
13241;BME280;6687;47.790;7.322;2023-01-29T19:34:26;100013.25;;;2.78;79.60
13241;BME280;6687;47.790;7.322;2023-01-29T19:36:52;100018.44;;;2.79;79.51
13241;BME280;6687;47.790;7.322;2023-01-29T19:39:19;100013.25;;;2.78;79.98
13241;BME280;6687;47.790;7.322;2023-01-29T19:41:46;100008.41;;;2.84;80.18
13241;BME280;6687;47.790;7.322;2023-01-29T19:44:13;100010.91;;;2.65;79.27
13241;BME280;6687;47.790;7.322;2023-01-29T19:46:39;100022.16;;;2.86;80.87